Terminal Aerodrome Forecast
Issued by NWS

Home | Current Version | Previous Version | Text Only | Print | Product List | Glossary On
Versions: 1 2 3 4 5 6 7 8 9 10 11 12 13 14
959
FTUS46 KMTR 131455 AAA
TAFSJC
TAF AMD
KSJC 131455Z 1315/1412 00000KT 3SM BR FEW001 OVC002
      TEMPO 1315/1316 2SM BR OVC002
     FM131800 30009KT P6SM FEW005 FEW250
     FM132200 31012KT P6SM FEW250
     FM140400 31004KT P6SM FEW250
     FM141000 32003KT 1SM BR BKN003=

USA.gov is the U.S. government's official web portal to all federal, state and local government web resources and services.